Time;durP1;ratioP1;P1;durP2;ratioP2;P2;SDS_P1;SDS_P2;PMS_P1;PMS_P2;Temp;Humidity;BMP_temperature;BMP_pressure;BME280_temperature;BME280_humidity;BME280_pressure;Samples;Min_cycle;Max_cycle;Signal;HPM_P1;HPM_P2
2022/04/06 00:00:00;;;;;;;9.87;4.70;;;;;;;8.45;100.00;99795.88;683251;28;1096;-45
2022/04/06 00:00:21;;;;;;;9.55;4.60;;;;;;;8.45;100.00;99800.25;686170;28;3596;-45
2022/04/06 00:00:42;;;;;;;9.48;4.57;;;;;;;8.43;100.00;99800.22;685328;28;4444;-44
2022/04/06 00:01:02;;;;;;;13.32;4.78;;;;;;;8.42;100.00;99801.09;686233;28;1155;-43
2022/04/06 00:01:23;;;;;;;12.43;4.70;;;;;;;8.41;100.00;99794.16;683504;28;1505;-43
2022/04/06 00:01:44;;;;;;;10.03;4.90;;;;;;;8.50;100.00;99796.72;683492;28;1073;-44
2022/04/06 00:02:04;;;;;;;11.45;4.68;;;;;;;8.57;100.00;99794.03;683533;28;1068;-44
2022/04/06 00:02:25;;;;;;;11.73;4.70;;;;;;;8.56;100.00;99797.53;684021;28;1109;-43
2022/04/06 00:02:46;;;;;;;9.37;4.53;;;;;;;8.60;100.00;99783.56;685617;28;1230;-44
2022/04/06 00:03:06;;;;;;;11.98;4.88;;;;;;;8.60;100.00;99792.28;686657;28;1151;-43
2022/04/06 00:03:27;;;;;;;9.93;4.57;;;;;;;8.67;100.00;99780.91;688925;28;1009;-44
2022/04/06 00:03:47;;;;;;;9.60;4.67;;;;;;;8.75;100.00;99788.63;687910;28;5104;-43
2022/04/06 00:04:07;;;;;;;11.90;5.00;;;;;;;8.73;100.00;99786.94;685740;28;1423;-43
2022/04/06 00:04:28;;;;;;;10.70;4.67;;;;;;;8.67;100.00;99793.06;686423;28;1081;-43
2022/04/06 00:04:48;;;;;;;9.80;4.57;;;;;;;8.60;100.00;99788.78;686705;28;976;-43
2022/04/06 00:05:10;;;;;;;9.30;4.57;;;;;;;8.55;100.00;99796.66;686575;28;1023;-44
2022/04/06 00:05:30;;;;;;;10.75;4.80;;;;;;;8.59;100.00;99797.50;684089;28;1077;-45
2022/04/06 00:05:51;;;;;;;9.67;4.83;;;;;;;8.67;100.00;99787.88;681336;28;1402;-44
2022/04/06 00:06:11;;;;;;;9.38;4.75;;;;;;;8.63;100.00;99793.97;683999;28;1072;-44
2022/04/06 00:06:32;;;;;;;10.30;4.90;;;;;;;8.58;100.00;99798.38;684147;28;1053;-43
2022/04/06 00:06:53;;;;;;;10.10;5.00;;;;;;;8.55;100.00;99793.19;683552;28;4278;-44
2022/04/06 00:07:13;;;;;;;10.05;4.65;;;;;;;8.53;100.00;99795.81;683833;28;1167;-43
2022/04/06 00:07:33;;;;;;;11.40;4.53;;;;;;;8.65;100.00;99789.59;687056;28;1073;-43
2022/04/06 00:07:54;;;;;;;11.40;4.83;;;;;;;8.68;100.00;99787.84;689314;28;1311;-44
2022/04/06 00:08:14;;;;;;;10.60;4.70;;;;;;;8.67;100.00;99788.72;689064;28;1065;-44
2022/04/06 00:08:35;;;;;;;9.67;4.43;;;;;;;8.75;100.00;99787.75;685727;28;1124;-43
2022/04/06 00:08:55;;;;;;;10.65;4.50;;;;;;;8.70;100.00;99790.44;683589;28;1339;-44
2022/04/06 00:09:15;;;;;;;12.33;4.50;;;;;;;8.67;100.00;99791.31;683786;28;1170;-44
2022/04/06 00:09:39;;;;;;;10.02;4.45;;;;;;;8.70;100.00;99790.44;683420;28;4571;-44
2022/04/06 00:09:59;;;;;;;8.73;4.50;;;;;;;8.73;100.00;99786.94;683693;28;1135;-44
2022/04/06 00:10:20;;;;;;;9.77;4.43;;;;;;;8.77;100.00;99786.00;683428;28;1085;-43
2022/04/06 00:10:40;;;;;;;10.57;4.57;;;;;;;8.73;100.00;99793.00;685763;28;1183;-44
2022/04/06 00:11:00;;;;;;;10.55;4.50;;;;;;;8.70;100.00;99785.22;689380;28;1131;-43
2022/04/06 00:11:21;;;;;;;10.43;4.67;;;;;;;8.66;100.00;99791.34;688860;28;1064;-44
2022/04/06 00:11:41;;;;;;;11.45;4.80;;;;;;;8.66;100.00;99791.34;689612;28;5018;-43
2022/04/06 00:12:02;;;;;;;10.83;4.70;;;;;;;8.61;100.00;99785.31;689420;28;1278;-43
2022/04/06 00:12:22;;;;;;;10.07;4.72;;;;;;;8.63;100.00;99784.41;689056;28;1922;-44
2022/04/06 00:12:42;;;;;;;9.53;4.67;;;;;;;8.58;100.00;99780.13;688516;28;4440;-44
2022/04/06 00:13:03;;;;;;;11.27;4.33;;;;;;;8.63;100.00;99780.97;686485;28;1108;-45
2022/04/06 00:13:23;;;;;;;12.57;4.70;;;;;;;8.66;100.00;99794.78;686566;28;1236;-43
2022/04/06 00:13:44;;;;;;;11.57;4.97;;;;;;;8.63;100.00;99783.56;686488;28;1018;-43
2022/04/06 00:14:04;;;;;;;11.18;5.25;;;;;;;8.58;100.00;99788.81;684010;28;1058;-44
2022/04/06 00:14:25;;;;;;;10.50;4.47;;;;;;;8.55;100.00;99782.78;684085;28;1080;-43
2022/04/06 00:14:45;;;;;;;11.73;4.70;;;;;;;8.55;100.00;99794.06;683924;28;1153;-43
2022/04/06 00:15:09;;;;;;;9.63;4.80;;;;;;;8.62;100.00;99787.88;686454;28;1061;-43
2022/04/06 00:15:29;;;;;;;8.80;4.55;;;;;;;8.59;100.00;99787.94;686603;28;1151;-43
2022/04/06 00:15:49;;;;;;;9.95;4.32;;;;;;;8.63;100.00;99781.81;686344;28;4343;-43
2022/04/06 00:16:10;;;;;;;9.13;4.90;;;;;;;8.66;100.00;99783.53;690107;28;1096;-44
2022/04/06 00:16:30;;;;;;;10.35;5.15;;;;;;;8.61;100.00;99778.38;685432;28;1192;-44
2022/04/06 00:16:51;;;;;;;9.43;4.43;;;;;;;8.65;100.00;99776.56;686195;28;1061;-43
2022/04/06 00:17:12;;;;;;;11.40;4.60;;;;;;;8.62;100.00;99776.63;686616;28;1096;-43
2022/04/06 00:17:33;;;;;;;10.82;4.68;;;;;;;8.69;100.00;99775.66;686043;28;1163;-43
2022/04/06 00:17:54;;;;;;;10.52;4.65;;;;;;;8.66;100.00;99783.53;685542;28;1141;-43
2022/04/06 00:18:14;;;;;;;10.88;4.72;;;;;;;8.66;100.00;99773.09;687496;28;1100;-44
2022/04/06 00:18:35;;;;;;;9.67;4.77;;;;;;;8.68;100.00;99782.63;689449;28;1231;-43
2022/04/06 00:18:56;;;;;;;12.00;4.82;;;;;;;8.66;100.00;99778.31;689390;28;4525;-43
2022/04/06 00:19:16;;;;;;;12.00;4.68;;;;;;;8.64;99.93;99774.84;689775;28;1115;-44
2022/04/06 00:19:36;;;;;;;10.73;4.47;;;;;;;8.62;99.67;99780.06;689160;28;1041;-43
2022/04/06 00:19:57;;;;;;;10.07;4.65;;;;;;;8.60;99.69;99778.34;689506;28;1291;-43
2022/04/06 00:20:17;;;;;;;10.77;4.80;;;;;;;8.66;99.77;99773.94;690078;28;1056;-43
2022/04/06 00:20:38;;;;;;;9.50;4.68;;;;;;;8.72;100.00;99773.00;689297;28;1139;-43
2022/04/06 00:20:58;;;;;;;9.97;4.63;;;;;;;8.67;100.00;99774.84;689040;28;910;-44
2022/04/06 00:21:19;;;;;;;9.48;4.50;;;;;;;8.79;99.09;99774.69;689254;28;1080;-43
2022/04/06 00:21:39;;;;;;;9.83;4.73;;;;;;;8.76;100.00;99773.84;688922;28;4341;-43
2022/04/06 00:22:00;;;;;;;10.98;4.82;;;;;;;8.80;99.97;99775.53;688574;28;1090;-43
2022/04/06 00:22:21;;;;;;;9.70;4.47;;;;;;;8.76;99.01;99774.72;689429;28;1422;-44
2022/04/06 00:22:41;;;;;;;8.47;4.27;;;;;;;8.73;100.00;99777.34;689509;28;1183;-43
2022/04/06 00:23:02;;;;;;;11.23;4.65;;;;;;;8.72;100.00;99773.00;688176;28;1422;-43
2022/04/06 00:23:22;;;;;;;12.23;4.70;;;;;;;8.63;100.00;99771.38;689555;28;1096;-45
2022/04/06 00:23:42;;;;;;;12.17;5.00;;;;;;;8.60;100.00;99774.03;689157;28;1082;-44
2022/04/06 00:24:03;;;;;;;11.57;5.03;;;;;;;8.64;100.00;99774.84;690622;28;1183;-43
2022/04/06 00:24:24;;;;;;;9.13;4.60;;;;;;;8.60;100.00;99774.03;689867;28;1120;-44
2022/04/06 00:24:44;;;;;;;9.43;4.90;;;;;;;8.55;100.00;99774.97;688994;28;4373;-45
2022/04/06 00:25:06;;;;;;;9.50;4.80;;;;;;;8.54;100.00;99771.47;689650;28;1218;-44
2022/04/06 00:25:26;;;;;;;10.38;5.00;;;;;;;8.56;100.00;99776.69;689502;28;1111;-43
2022/04/06 00:25:47;;;;;;;8.20;4.40;;;;;;;8.62;100.00;99776.63;689291;28;999;-44
2022/04/06 00:26:07;;;;;;;10.17;4.83;;;;;;;8.69;99.90;99773.94;689575;28;1123;-44
2022/04/06 00:26:27;;;;;;;12.23;4.87;;;;;;;8.70;99.97;99774.78;689164;28;1092;-45
2022/04/06 00:26:48;;;;;;;13.05;4.93;;;;;;;8.76;99.35;99772.09;689600;28;1330;-44
2022/04/06 00:27:08;;;;;;;10.93;4.70;;;;;;;8.72;99.64;99778.22;686673;28;1126;-44
2022/04/06 00:27:29;;;;;;;10.82;4.70;;;;;;;8.66;99.83;99773.09;684372;28;1183;-44
2022/04/06 00:27:50;;;;;;;9.73;4.65;;;;;;;8.65;100.00;99773.97;681111;28;4398;-44
2022/04/06 00:28:10;;;;;;;10.50;4.40;;;;;;;8.63;100.00;99775.75;682065;28;1150;-46
2022/04/06 00:28:31;;;;;;;11.57;4.45;;;;;;;8.69;100.00;99770.44;680836;29;806;-44
2022/04/06 00:28:52;;;;;;;12.02;4.78;;;;;;;8.81;99.39;99772.91;680068;28;1009;-44
2022/04/06 00:29:12;;;;;;;11.30;4.65;;;;;;;8.79;99.76;99774.69;681796;28;1295;-44
2022/04/06 00:29:33;;;;;;;9.17;4.50;;;;;;;8.75;100.00;99773.00;683561;28;1674;-46
2022/04/06 00:29:53;;;;;;;10.00;4.70;;;;;;;8.81;99.02;99772.06;686093;28;917;-43
2022/04/06 00:30:13;;;;;;;10.87;4.50;;;;;;;8.75;100.00;99770.41;687409;28;1342;-45
2022/04/06 00:30:34;;;;;;;10.73;4.90;;;;;;;8.72;100.00;99774.78;690231;28;962;-44
2022/04/06 00:30:54;;;;;;;12.50;5.00;;;;;;;8.72;100.00;99772.16;688455;28;4412;-44
2022/04/06 00:31:15;;;;;;;10.00;4.40;;;;;;;8.72;98.36;99772.16;689538;28;993;-44
2022/04/06 00:31:35;;;;;;;11.73;4.70;;;;;;;8.65;99.84;99772.25;689728;28;1103;-45
2022/04/06 00:31:55;;;;;;;11.40;5.10;;;;;;;8.70;99.98;99780.00;688914;28;1049;-44
2022/04/06 00:32:16;;;;;;;11.90;4.82;;;;;;;8.77;100.00;99771.22;688790;28;1918;-45
2022/04/06 00:32:36;;;;;;;12.63;4.57;;;;;;;8.74;100.00;99773.88;687764;28;1064;-44
2022/04/06 00:32:56;;;;;;;11.68;4.60;;;;;;;8.67;100.00;99773.06;687097;28;1127;-44
2022/04/06 00:33:17;;;;;;;11.37;5.30;;;;;;;8.61;99.50;99770.56;687216;28;1162;-45
2022/04/06 00:33:37;;;;;;;11.70;5.20;;;;;;;8.73;99.65;99774.75;686557;28;4734;-43
2022/04/06 00:33:58;;;;;;;10.02;4.85;;;;;;;8.67;100.00;99780.03;688335;28;993;-43
2022/04/06 00:34:18;;;;;;;12.10;4.90;;;;;;;8.63;100.00;99776.59;687095;28;982;-45
2022/04/06 00:35:31;;;;;;;9.77;4.70;;;;;;;8.64;100.00;99773.13;685969;28;1054;-43
2022/04/06 00:35:51;;;;;;;12.98;4.90;;;;;;;8.64;100.00;99769.63;685702;28;959;-45
2022/04/06 00:36:12;;;;;;;11.47;4.60;;;;;;;8.62;100.00;99766.19;684314;28;1061;-43
2022/04/06 00:36:33;;;;;;;11.57;4.80;;;;;;;8.59;100.00;99771.44;688794;28;1087;-43
2022/04/06 00:36:55;;;;;;;14.13;4.95;;;;;;;8.62;100.00;99761.84;689039;28;4481;-43
2022/04/06 00:37:15;;;;;;;12.07;5.05;;;;;;;8.68;99.82;99766.13;689361;28;1112;-43
2022/04/06 00:37:36;;;;;;;9.05;4.75;;;;;;;8.63;100.00;99767.94;689959;28;1108;-44
2022/04/06 00:38:04;;;;;;;10.03;4.80;;;;;;;8.60;100.00;99773.16;689428;28;1187;-43
2022/04/06 00:38:24;;;;;;;11.55;4.88;;;;;;;8.56;100.00;99763.66;689137;28;1299;-45
2022/04/06 00:38:45;;;;;;;10.27;4.90;;;;;;;8.60;100.00;99767.94;689493;28;976;-43
2022/04/06 00:39:05;;;;;;;9.53;4.70;;;;;;;8.56;100.00;99769.75;689482;28;1056;-43
2022/04/06 00:39:25;;;;;;;10.30;4.85;;;;;;;8.59;100.00;99768.84;689673;28;1076;-43
2022/04/06 00:39:46;;;;;;;10.00;5.10;;;;;;;8.56;100.00;99767.13;689128;28;4527;-43
2022/04/06 00:40:10;;;;;;;9.37;4.60;;;;;;;8.62;100.00;99760.97;690050;28;1057;-43
2022/04/06 00:40:33;;;;;;;10.93;5.00;;;;;;;8.64;100.00;99764.41;689402;28;1088;-43
2022/04/06 00:40:53;;;;;;;10.88;5.35;;;;;;;8.74;100.00;99773.88;689278;28;1107;-43
2022/04/06 00:41:14;;;;;;;9.23;4.80;;;;;;;8.68;100.00;99771.31;689804;28;1177;-43
2022/04/06 00:41:35;;;;;;;9.70;4.88;;;;;;;8.73;100.00;99769.53;689223;28;1085;-45
2022/04/06 00:41:56;;;;;;;9.57;5.13;;;;;;;8.72;100.00;99773.00;689075;28;1030;-43
2022/04/06 00:42:17;;;;;;;10.20;4.97;;;;;;;8.69;100.00;99770.44;689616;28;1392;-44
2022/04/06 00:42:37;;;;;;;9.93;5.20;;;;;;;8.66;100.00;99768.75;688062;28;4525;-44
2022/04/06 00:42:58;;;;;;;10.68;5.22;;;;;;;8.63;100.00;99768.78;689131;28;978;-44
2022/04/06 00:43:18;;;;;;;10.97;5.40;;;;;;;8.55;100.00;99764.53;689519;28;1124;-43
2022/04/06 00:43:39;;;;;;;12.00;4.90;;;;;;;8.63;100.00;99765.31;689590;28;1116;-45
2022/04/06 00:44:16;;;;;;;14.37;5.23;;;;;;;8.61;100.00;99775.78;688828;28;1157;-43
2022/04/06 00:44:37;;;;;;;10.18;4.90;;;;;;;8.65;100.00;99766.16;686634;28;1096;-43
2022/04/06 00:44:57;;;;;;;9.43;4.80;;;;;;;8.57;99.64;99763.66;686140;28;1320;-44
2022/04/06 00:45:17;;;;;;;11.20;4.63;;;;;;;8.56;99.68;99767.13;687139;28;1276;-43
2022/04/06 00:45:39;;;;;;;12.13;4.90;;;;;;;8.55;100.00;99764.53;683468;28;4569;-43
2022/04/06 00:45:59;;;;;;;10.48;4.75;;;;;;;8.63;100.00;99766.19;683449;28;1068;-43
2022/04/06 00:46:20;;;;;;;9.37;4.60;;;;;;;8.65;100.00;99769.66;684548;28;1144;-44
2022/04/06 00:46:42;;;;;;;10.60;4.95;;;;;;;8.71;99.47;99773.03;684838;28;1152;-43
2022/04/06 00:47:04;;;;;;;11.35;4.60;;;;;;;8.69;99.72;99767.84;685997;28;1101;-43
2022/04/06 00:47:25;;;;;;;11.95;4.90;;;;;;;8.71;100.00;99766.09;686621;28;1171;-43
2022/04/06 00:47:46;;;;;;;10.73;4.82;;;;;;;8.68;99.89;99768.72;689528;28;1073;-45
2022/04/06 00:48:08;;;;;;;10.57;5.25;;;;;;;8.68;99.49;99766.13;689603;28;1100;-44
2022/04/06 00:48:28;;;;;;;11.05;5.05;;;;;;;8.73;100.00;99764.31;686847;28;1067;-43
2022/04/06 00:48:48;;;;;;;11.53;4.93;;;;;;;8.63;100.00;99770.53;685400;28;4503;-43
2022/04/06 00:49:14;;;;;;;10.23;5.00;;;;;;;8.70;99.55;99759.16;686792;28;1111;-44
2022/04/06 00:49:35;;;;;;;10.38;4.78;;;;;;;8.61;99.92;99767.06;686524;28;1243;-44
2022/04/06 00:49:55;;;;;;;9.43;4.53;;;;;;;8.57;99.62;99765.38;686495;28;1160;-43
2022/04/06 00:50:17;;;;;;;10.35;4.97;;;;;;;8.58;100.00;99762.75;687782;28;1333;-44
2022/04/06 00:50:38;;;;;;;9.43;5.07;;;;;;;8.65;99.89;99755.72;689393;28;1060;-44
2022/04/06 00:50:59;;;;;;;9.90;5.10;;;;;;;8.76;100.00;99764.28;688349;28;1032;-45
2022/04/06 00:51:19;;;;;;;10.02;4.95;;;;;;;8.68;100.00;99759.19;686817;28;1147;-43
2022/04/06 00:51:42;;;;;;;11.23;5.40;;;;;;;8.60;100.00;99761.00;686193;28;4392;-44
2022/04/06 00:52:05;;;;;;;13.48;5.30;;;;;;;8.60;100.00;99754.91;686708;28;1123;-44
2022/04/06 00:52:26;;;;;;;10.43;5.25;;;;;;;8.55;100.00;99760.19;683764;28;1914;-44
2022/04/06 00:52:48;;;;;;;11.13;5.43;;;;;;;8.50;100.00;99757.63;683917;28;1179;-43
2022/04/06 00:53:08;;;;;;;11.63;4.88;;;;;;;8.46;100.00;99758.56;684173;28;1348;-43
2022/04/06 00:53:29;;;;;;;9.93;4.80;;;;;;;8.47;100.00;99752.47;685949;28;1217;-43
2022/04/06 00:53:49;;;;;;;10.77;5.00;;;;;;;8.48;100.00;99753.31;686596;28;1510;-44
2022/04/06 00:54:16;;;;;;;10.95;4.97;;;;;;;8.46;100.00;99757.66;686384;28;1339;-44
2022/04/06 00:54:37;;;;;;;11.07;4.95;;;;;;;8.54;100.00;99748.03;683262;28;4459;-44
2022/04/06 00:54:59;;;;;;;12.45;5.10;;;;;;;8.54;100.00;99760.22;683130;28;1378;-44
2022/04/06 00:55:19;;;;;;;12.07;5.07;;;;;;;8.65;100.00;99755.72;683875;28;1145;-44
2022/04/06 00:55:40;;;;;;;12.87;4.93;;;;;;;8.66;100.00;99757.47;683677;28;1153;-44
2022/04/06 00:56:00;;;;;;;10.50;4.50;;;;;;;8.60;100.00;99762.72;683868;28;1179;-43
2022/04/06 00:56:21;;;;;;;8.68;4.50;;;;;;;8.56;100.00;99756.72;682891;28;1221;-44
2022/04/06 00:56:43;;;;;;;9.37;4.73;;;;;;;8.59;100.00;99755.81;686231;28;3639;-45
2022/04/06 00:57:04;;;;;;;12.13;4.72;;;;;;;8.62;100.00;99755.78;684435;28;2043;-44
2022/04/06 00:57:25;;;;;;;12.48;5.03;;;;;;;8.56;100.00;99751.50;685007;28;1299;-45
2022/04/06 00:57:46;;;;;;;10.15;4.60;;;;;;;8.52;100.00;99755.88;683367;28;4687;-43
2022/04/06 00:58:07;;;;;;;11.30;4.97;;;;;;;8.61;100.00;99759.25;686166;28;1274;-44
2022/04/06 00:58:27;;;;;;;10.20;4.78;;;;;;;8.70;98.36;99753.94;685805;28;1243;-44
2022/04/06 00:58:49;;;;;;;9.48;4.53;;;;;;;8.67;99.65;99751.38;686646;28;1386;-44
2022/04/06 00:59:09;;;;;;;11.45;4.65;;;;;;;8.62;99.23;99750.56;689067;28;1444;-43
2022/04/06 00:59:30;;;;;;;10.32;4.47;;;;;;;8.63;100.00;99755.75;689615;28;1404;-43
2022/04/06 00:59:51;;;;;;;10.27;4.70;;;;;;;8.57;100.00;99755.84;688825;28;1205;-43
2022/04/06 01:00:13;;;;;;;10.35;4.78;;;;;;;8.58;100.00;99757.53;685569;28;1255;-44
2022/04/06 01:00:34;;;;;;;9.57;4.60;;;;;;;8.54;100.00;99763.66;686810;28;1542;-44
2022/04/06 01:00:54;;;;;;;8.73;4.60;;;;;;;8.57;100.00;99750.63;686128;28;4629;-44
2022/04/06 01:01:15;;;;;;;9.60;4.80;;;;;;;8.60;100.00;99749.69;686121;28;1171;-44
2022/04/06 01:01:35;;;;;;;9.57;4.90;;;;;;;8.55;99.93;99751.53;686325;28;1081;-44
2022/04/06 01:01:57;;;;;;;9.77;4.55;;;;;;;8.49;100.00;99745.50;687057;28;1338;-44
2022/04/06 01:02:17;;;;;;;9.68;4.63;;;;;;;8.54;100.00;99753.25;689827;28;1258;-44
2022/04/06 01:02:38;;;;;;;10.33;5.00;;;;;;;8.48;100.00;99751.56;689863;28;1239;-44
2022/04/06 01:02:59;;;;;;;10.73;4.72;;;;;;;8.55;100.00;99748.91;685778;28;1287;-43
2022/04/06 01:03:19;;;;;;;10.07;4.70;;;;;;;8.55;100.00;99744.56;686445;28;1401;-45
2022/04/06 01:03:40;;;;;;;10.13;4.63;;;;;;;8.50;100.00;99752.44;685358;28;4311;-45
2022/04/06 01:04:01;;;;;;;10.43;4.72;;;;;;;8.49;100.00;99744.63;686028;28;1244;-44
2022/04/06 01:04:22;;;;;;;11.52;4.90;;;;;;;8.59;99.02;99750.59;686056;28;1152;-43
2022/04/06 01:04:42;;;;;;;10.57;4.57;;;;;;;8.51;100.00;99746.34;684282;28;1422;-43
2022/04/06 01:05:03;;;;;;;9.10;4.60;;;;;;;8.53;100.00;99746.31;686988;28;1149;-43
2022/04/06 01:05:25;;;;;;;9.65;4.40;;;;;;;8.50;100.00;99752.44;686005;28;1227;-45
2022/04/06 01:05:45;;;;;;;12.18;4.78;;;;;;;8.45;100.00;99750.75;686521;28;1437;-45
2022/04/06 01:06:07;;;;;;;9.90;4.90;;;;;;;8.43;100.00;99748.16;687008;28;1437;-43
2022/04/06 01:06:28;;;;;;;8.95;4.53;;;;;;;8.45;100.00;99746.41;687323;28;1141;-43
2022/04/06 01:06:49;;;;;;;9.63;4.78;;;;;;;8.44;100.00;99744.63;688618;28;4542;-43
2022/04/06 01:07:09;;;;;;;9.75;4.45;;;;;;;8.41;100.00;99744.69;689611;28;1406;-44
2022/04/06 01:07:30;;;;;;;10.63;4.57;;;;;;;8.42;100.00;99749.00;688925;28;1156;-43
2022/04/06 01:07:52;;;;;;;10.70;4.97;;;;;;;8.47;100.00;99743.78;689368;28;1389;-43
2022/04/06 01:08:12;;;;;;;9.30;4.82;;;;;;;8.45;100.00;99746.41;686775;28;1235;-43
2022/04/06 01:08:34;;;;;;;10.20;4.70;;;;;;;8.59;100.00;99745.41;686682;28;1127;-43
2022/04/06 01:08:54;;;;;;;11.50;4.63;;;;;;;8.53;100.00;99746.31;686032;28;1216;-44
2022/04/06 01:09:16;;;;;;;11.05;4.75;;;;;;;8.47;100.00;99743.78;686641;28;1170;-43
2022/04/06 01:09:36;;;;;;;10.18;5.00;;;;;;;8.45;100.00;99748.16;685454;28;4396;-46
2022/04/06 01:09:56;;;;;;;10.97;5.10;;;;;;;8.43;100.00;99750.75;686463;28;1279;-44
2022/04/06 01:10:17;;;;;;;12.35;4.90;;;;;;;8.44;100.00;99752.44;689613;28;1143;-43
2022/04/06 01:10:38;;;;;;;12.00;4.47;;;;;;;8.43;100.00;99742.94;689574;28;1179;-44
2022/04/06 01:10:59;;;;;;;11.00;4.50;;;;;;;8.41;100.00;99746.44;687439;28;1354;-43
2022/04/06 01:11:20;;;;;;;10.88;4.50;;;;;;;8.40;100.00;99750.75;687595;28;1311;-44
2022/04/06 01:11:43;;;;;;;9.85;4.72;;;;;;;8.48;100.00;99743.75;687916;28;4816;-43
2022/04/06 01:12:04;;;;;;;10.35;4.75;;;;;;;8.59;100.00;99746.25;687439;28;1279;-44
2022/04/06 01:12:27;;;;;;;8.52;4.63;;;;;;;8.61;100.00;99747.09;684615;28;1922;-44
2022/04/06 01:12:49;;;;;;;9.77;4.32;;;;;;;8.53;100.00;99746.31;684648;28;4602;-43
2022/04/06 01:13:09;;;;;;;8.85;4.15;;;;;;;8.52;100.00;99747.19;685943;28;1303;-43
2022/04/06 01:13:30;;;;;;;10.23;4.30;;;;;;;8.54;100.00;99749.78;682796;28;1327;-43
2022/04/06 01:13:53;;;;;;;10.80;4.55;;;;;;;8.59;100.00;99748.00;682485;28;1294;-45
2022/04/06 01:14:14;;;;;;;11.60;4.57;;;;;;;8.64;99.60;99746.19;681720;28;1461;-43
2022/04/06 01:14:35;;;;;;;8.90;4.13;;;;;;;8.62;100.00;99746.19;684095;28;1030;-44
2022/04/06 01:14:56;;;;;;;10.40;4.32;;;;;;;8.61;100.00;99741.00;683586;28;1391;-43
2022/04/06 01:15:17;;;;;;;12.30;4.45;;;;;;;8.51;100.00;99742.88;684635;28;1143;-44
2022/04/06 01:15:37;;;;;;;9.73;4.07;;;;;;;8.52;99.81;99742.84;686404;28;4432;-44
2022/04/06 01:15:57;;;;;;;9.17;4.40;;;;;;;8.54;100.00;99745.44;686440;28;1184;-43
2022/04/06 01:16:18;;;;;;;9.50;4.65;;;;;;;8.53;99.51;99743.72;689663;28;1468;-44
2022/04/06 01:16:40;;;;;;;10.17;4.60;;;;;;;8.50;100.00;99746.34;689071;28;1258;-45
2022/04/06 01:17:03;;;;;;;10.43;4.63;;;;;;;8.56;100.00;99745.44;688044;28;1135;-43
2022/04/06 01:17:32;;;;;;;9.68;4.40;;;;;;;8.51;100.00;99748.06;689057;28;1235;-46
2022/04/06 01:17:52;;;;;;;11.52;4.63;;;;;;;8.52;100.00;99750.66;688424;28;1135;-44
2022/04/06 01:18:12;;;;;;;9.38;4.47;;;;;;;8.56;98.96;99748.03;689499;28;1155;-45
2022/04/06 01:18:33;;;;;;;9.03;4.13;;;;;;;8.51;99.73;99741.13;686820;28;1338;-43
2022/04/06 01:18:54;;;;;;;9.80;4.30;;;;;;;8.53;99.71;99746.31;684304;28;4474;-43
2022/04/06 01:19:15;;;;;;;10.45;4.13;;;;;;;8.51;99.75;99746.34;684925;28;1191;-43
2022/04/06 01:19:44;;;;;;;9.27;4.30;;;;;;;8.61;100.00;99744.50;685761;28;1046;-43
2022/04/06 01:20:07;;;;;;;10.73;4.43;;;;;;;8.61;99.05;99741.91;683410;28;1195;-43
2022/04/06 01:20:29;;;;;;;11.32;4.60;;;;;;;8.60;99.63;99742.78;687242;28;1110;-43
2022/04/06 01:20:49;;;;;;;9.02;4.30;;;;;;;8.68;98.66;99742.66;687188;28;1211;-43
2022/04/06 01:21:11;;;;;;;10.07;4.10;;;;;;;8.61;100.00;99741.00;689480;28;1065;-44
2022/04/06 01:21:32;;;;;;;9.85;4.10;;;;;;;8.62;100.00;99741.00;689715;28;1071;-44
2022/04/06 01:21:52;;;;;;;9.00;4.10;;;;;;;8.55;100.00;99741.94;688660;28;4262;-43
2022/04/06 01:22:15;;;;;;;8.70;4.40;;;;;;;8.49;100.00;99740.28;689237;28;1287;-44
2022/04/06 01:22:36;;;;;;;9.98;4.18;;;;;;;8.44;100.00;99742.03;689717;28;1127;-43
2022/04/06 01:22:57;;;;;;;9.80;4.40;;;;;;;8.45;100.00;99737.75;688770;28;1048;-43
2022/04/06 01:23:17;;;;;;;10.20;4.20;;;;;;;8.39;100.00;99749.06;689279;28;1116;-45
2022/04/06 01:23:42;;;;;;;9.35;4.00;;;;;;;8.48;100.00;99740.28;689396;28;1413;-44
2022/04/06 01:24:02;;;;;;;11.23;4.50;;;;;;;8.43;99.18;99736.84;688874;28;1037;-43
2022/04/06 01:24:23;;;;;;;10.43;4.40;;;;;;;8.42;99.38;99736.00;689326;28;1087;-44
2022/04/06 01:24:45;;;;;;;7.63;4.00;;;;;;;8.39;99.78;99742.97;689190;28;4369;-47
2022/04/06 01:25:07;;;;;;;9.23;4.30;;;;;;;8.41;100.00;99736.00;689485;28;1045;-44
2022/04/06 01:25:28;;;;;;;8.27;4.22;;;;;;;8.40;100.00;99742.09;689138;28;1415;-45
2022/04/06 01:25:49;;;;;;;8.83;4.03;;;;;;;8.43;99.13;99737.72;686475;28;1064;-43
2022/04/06 01:26:10;;;;;;;9.60;4.25;;;;;;;8.40;98.83;99742.94;686457;28;1088;-44
2022/04/06 01:26:31;;;;;;;11.02;4.38;;;;;;;8.39;99.41;99743.84;686384;28;1219;-43
2022/04/06 01:26:51;;;;;;;10.13;4.20;;;;;;;8.44;99.49;99735.97;686284;28;950;-43
2022/04/06 01:27:13;;;;;;;8.53;4.17;;;;;;;8.46;99.79;99736.84;686388;28;1119;-43
2022/04/06 01:27:33;;;;;;;9.82;4.28;;;;;;;8.41;100.00;99741.22;687230;28;881;-43
2022/04/06 01:27:54;;;;;;;9.17;4.50;;;;;;;8.37;100.00;99744.72;688679;28;4496;-43
2022/04/06 01:28:14;;;;;;;11.77;4.33;;;;;;;8.42;100.00;99740.31;686222;28;1679;-43
2022/04/06 01:28:36;;;;;;;11.60;4.03;;;;;;;8.56;98.83;99733.25;686872;28;1131;-43
2022/04/06 01:28:56;;;;;;;9.80;3.90;;;;;;;8.54;100.00;99739.38;686025;28;1003;-44
2022/04/06 01:29:16;;;;;;;11.98;4.20;;;;;;;8.48;99.74;99745.50;686047;28;1418;-43
2022/04/06 01:29:38;;;;;;;9.93;4.13;;;;;;;8.43;100.00;99732.50;686618;28;801;-43
2022/04/06 01:29:59;;;;;;;10.30;4.13;;;;;;;8.39;100.00;99743.84;686918;28;1019;-43
2022/04/06 01:30:20;;;;;;;9.82;4.15;;;;;;;8.38;100.00;99744.72;689562;28;1032;-45
2022/04/06 01:30:40;;;;;;;10.18;4.57;;;;;;;8.42;100.00;99741.19;687085;28;4436;-43
2022/04/06 01:31:01;;;;;;;8.57;4.17;;;;;;;8.39;100.00;99738.63;687303;28;1235;-43
2022/04/06 01:31:21;;;;;;;7.95;3.88;;;;;;;8.45;100.00;99743.78;687884;28;1305;-43
2022/04/06 01:31:41;;;;;;;8.57;4.07;;;;;;;8.41;100.00;99734.25;686972;28;1223;-43
2022/04/06 01:32:12;;;;;;;8.77;4.17;;;;;;;8.31;100.00;99738.69;686494;28;1243;-43
2022/04/06 01:32:35;;;;;;;8.55;3.90;;;;;;;8.30;100.00;99739.56;688802;28;992;-43
2022/04/06 01:32:57;;;;;;;10.45;4.45;;;;;;;8.27;100.00;99743.97;689259;28;944;-43
2022/04/06 01:33:18;;;;;;;11.15;4.40;;;;;;;8.36;100.00;99738.63;689102;28;1088;-43
2022/04/06 01:33:39;;;;;;;11.53;4.50;;;;;;;8.35;100.00;99747.34;688936;28;4366;-43
2022/04/06 01:33:59;;;;;;;9.52;4.13;;;;;;;8.32;100.00;99736.94;689011;28;1247;-44
2022/04/06 01:34:19;;;;;;;11.03;4.00;;;;;;;8.31;100.00;99738.69;689045;28;1242;-43
2022/04/06 01:34:40;;;;;;;10.77;4.28;;;;;;;8.29;100.00;99737.00;689236;28;1308;-45
2022/04/06 01:35:03;;;;;;;9.57;4.15;;;;;;;8.27;100.00;99737.00;688959;28;1211;-44
2022/04/06 01:35:24;;;;;;;9.38;4.10;;;;;;;8.24;100.00;99738.75;688772;28;1091;-43
2022/04/06 01:35:44;;;;;;;8.75;4.00;;;;;;;8.22;100.00;99737.94;689626;28;1185;-44
2022/04/06 01:36:05;;;;;;;9.73;4.33;;;;;;;8.30;100.00;99736.13;689357;28;1037;-43
2022/04/06 01:36:25;;;;;;;9.32;4.10;;;;;;;8.35;100.00;99734.34;689813;28;1383;-46
2022/04/06 01:36:46;;;;;;;9.87;4.20;;;;;;;8.43;100.00;99734.22;687894;28;4534;-43
2022/04/06 01:37:08;;;;;;;9.05;3.83;;;;;;;8.44;100.00;99723.78;689205;28;1662;-44
2022/04/06 01:37:31;;;;;;;10.95;4.50;;;;;;;8.46;100.00;99735.09;689265;28;1080;-45
2022/04/06 01:37:51;;;;;;;9.70;4.18;;;;;;;8.42;100.00;99735.09;684664;28;877;-44
2022/04/06 01:38:11;;;;;;;9.50;3.83;;;;;;;8.46;100.00;99735.09;685176;28;989;-44
2022/04/06 01:38:32;;;;;;;8.27;4.10;;;;;;;8.40;100.00;99735.13;685177;28;1144;-43
2022/04/06 01:38:52;;;;;;;8.30;3.93;;;;;;;8.41;100.00;99739.47;685686;28;1066;-44
2022/04/06 01:39:13;;;;;;;9.32;3.75;;;;;;;8.51;100.00;99742.88;685306;28;1121;-43
2022/04/06 01:39:35;;;;;;;10.03;4.07;;;;;;;8.46;99.97;99742.94;685441;28;1120;-45
2022/04/06 01:39:56;;;;;;;10.95;3.90;;;;;;;8.41;99.80;99739.47;682726;28;4422;-46
2022/04/06 01:40:16;;;;;;;10.07;4.30;;;;;;;8.38;100.00;99736.91;684527;28;1168;-43
2022/04/06 01:40:36;;;;;;;9.45;3.90;;;;;;;8.46;100.00;99742.03;683825;28;1080;-44
2022/04/06 01:40:57;;;;;;;9.10;3.97;;;;;;;8.46;99.71;99740.31;680578;29;1060;-43
2022/04/06 01:41:17;;;;;;;8.90;4.17;;;;;;;8.41;100.00;99739.47;681520;29;1123;-43
2022/04/06 01:41:38;;;;;;;8.73;4.20;;;;;;;8.51;100.00;99735.94;680922;28;1581;-43